sensor_id;sensor_type;location;lat;lon;timestamp;P1;durP1;ratioP1;P2;durP2;ratioP2
27517;SDS011;14962;52.482;13.142;2024-01-30T00:02:18;10.40;;;4.40;;
27517;SDS011;14962;52.482;13.142;2024-01-30T00:04:44;9.90;;;5.25;;
27517;SDS011;14962;52.482;13.142;2024-01-30T00:07:10;11.95;;;6.30;;
27517;SDS011;14962;52.482;13.142;2024-01-30T00:09:35;10.77;;;4.88;;
27517;SDS011;14962;52.482;13.142;2024-01-30T00:12:01;9.68;;;5.13;;
27517;SDS011;14962;52.482;13.142;2024-01-30T00:14:27;10.00;;;5.03;;
27517;SDS011;14962;52.482;13.142;2024-01-30T00:16:53;10.90;;;5.03;;
27517;SDS011;14962;52.482;13.142;2024-01-30T00:19:19;12.55;;;5.38;;
27517;SDS011;14962;52.482;13.142;2024-01-30T00:21:45;10.68;;;5.35;;
27517;SDS011;14962;52.482;13.142;2024-01-30T00:24:11;11.25;;;5.13;;
27517;SDS011;14962;52.482;13.142;2024-01-30T00:26:37;9.48;;;4.53;;
27517;SDS011;14962;52.482;13.142;2024-01-30T00:29:03;11.73;;;5.03;;
27517;SDS011;14962;52.482;13.142;2024-01-30T00:31:29;9.98;;;5.10;;
27517;SDS011;14962;52.482;13.142;2024-01-30T00:33:55;13.00;;;5.60;;
27517;SDS011;14962;52.482;13.142;2024-01-30T00:36:21;9.32;;;4.85;;
27517;SDS011;14962;52.482;13.142;2024-01-30T00:38:47;8.70;;;4.90;;
27517;SDS011;14962;52.482;13.142;2024-01-30T00:41:13;8.73;;;4.00;;
27517;SDS011;14962;52.482;13.142;2024-01-30T00:43:39;12.23;;;5.38;;
27517;SDS011;14962;52.482;13.142;2024-01-30T00:46:05;16.40;;;5.72;;
27517;SDS011;14962;52.482;13.142;2024-01-30T00:48:31;10.23;;;5.00;;
27517;SDS011;14962;52.482;13.142;2024-01-30T00:50:57;8.98;;;5.50;;
27517;SDS011;14962;52.482;13.142;2024-01-30T00:53:23;14.63;;;5.95;;
27517;SDS011;14962;52.482;13.142;2024-01-30T00:55:49;13.18;;;4.72;;
27517;SDS011;14962;52.482;13.142;2024-01-30T00:58:15;10.25;;;5.13;;
27517;SDS011;14962;52.482;13.142;2024-01-30T01:00:41;12.88;;;5.75;;
27517;SDS011;14962;52.482;13.142;2024-01-30T01:03:07;11.65;;;5.13;;
27517;SDS011;14962;52.482;13.142;2024-01-30T01:05:33;12.57;;;6.22;;
27517;SDS011;14962;52.482;13.142;2024-01-30T01:07:59;11.00;;;4.93;;
27517;SDS011;14962;52.482;13.142;2024-01-30T01:10:25;10.10;;;4.88;;
27517;SDS011;14962;52.482;13.142;2024-01-30T01:12:52;10.07;;;4.85;;
27517;SDS011;14962;52.482;13.142;2024-01-30T01:15:18;12.35;;;4.85;;
27517;SDS011;14962;52.482;13.142;2024-01-30T01:17:44;12.60;;;5.05;;
27517;SDS011;14962;52.482;13.142;2024-01-30T01:20:10;12.20;;;5.63;;
27517;SDS011;14962;52.482;13.142;2024-01-30T01:22:37;11.05;;;5.38;;
27517;SDS011;14962;52.482;13.142;2024-01-30T01:25:06;9.68;;;5.30;;
27517;SDS011;14962;52.482;13.142;2024-01-30T01:27:33;11.73;;;5.20;;
27517;SDS011;14962;52.482;13.142;2024-01-30T01:29:59;10.32;;;5.30;;
27517;SDS011;14962;52.482;13.142;2024-01-30T01:32:25;14.32;;;5.80;;
27517;SDS011;14962;52.482;13.142;2024-01-30T01:34:51;10.00;;;4.88;;
27517;SDS011;14962;52.482;13.142;2024-01-30T01:37:17;12.35;;;5.13;;
27517;SDS011;14962;52.482;13.142;2024-01-30T01:39:43;10.68;;;6.03;;
27517;SDS011;14962;52.482;13.142;2024-01-30T01:42:09;12.32;;;5.85;;
27517;SDS011;14962;52.482;13.142;2024-01-30T01:44:35;11.05;;;5.38;;
27517;SDS011;14962;52.482;13.142;2024-01-30T01:47:01;9.43;;;5.10;;
27517;SDS011;14962;52.482;13.142;2024-01-30T01:49:27;10.77;;;5.45;;
27517;SDS011;14962;52.482;13.142;2024-01-30T01:51:53;9.98;;;5.50;;
27517;SDS011;14962;52.482;13.142;2024-01-30T01:54:20;15.20;;;6.35;;
27517;SDS011;14962;52.482;13.142;2024-01-30T01:56:47;10.93;;;5.30;;
27517;SDS011;14962;52.482;13.142;2024-01-30T01:59:12;9.60;;;5.30;;
27517;SDS011;14962;52.482;13.142;2024-01-30T02:01:39;10.20;;;5.25;;
27517;SDS011;14962;52.482;13.142;2024-01-30T02:04:08;13.80;;;5.70;;
27517;SDS011;14962;52.482;13.142;2024-01-30T02:06:34;11.88;;;5.40;;
27517;SDS011;14962;52.482;13.142;2024-01-30T02:09:00;13.77;;;6.82;;
27517;SDS011;14962;52.482;13.142;2024-01-30T02:11:26;11.02;;;4.80;;
27517;SDS011;14962;52.482;13.142;2024-01-30T02:13:53;11.48;;;5.38;;
27517;SDS011;14962;52.482;13.142;2024-01-30T02:16:19;9.90;;;5.32;;
27517;SDS011;14962;52.482;13.142;2024-01-30T02:18:45;11.48;;;5.57;;
27517;SDS011;14962;52.482;13.142;2024-01-30T02:21:14;10.73;;;5.38;;
27517;SDS011;14962;52.482;13.142;2024-01-30T02:23:40;11.27;;;4.93;;
27517;SDS011;14962;52.482;13.142;2024-01-30T02:26:06;13.43;;;5.45;;
27517;SDS011;14962;52.482;13.142;2024-01-30T02:28:32;10.07;;;5.57;;
27517;SDS011;14962;52.482;13.142;2024-01-30T02:30:58;11.48;;;5.10;;
27517;SDS011;14962;52.482;13.142;2024-01-30T02:33:24;11.88;;;5.45;;
27517;SDS011;14962;52.482;13.142;2024-01-30T02:35:50;11.80;;;5.97;;
27517;SDS011;14962;52.482;13.142;2024-01-30T02:38:16;10.55;;;5.30;;
27517;SDS011;14962;52.482;13.142;2024-01-30T02:40:42;10.88;;;6.25;;
27517;SDS011;14962;52.482;13.142;2024-01-30T02:43:08;11.80;;;5.93;;
27517;SDS011;14962;52.482;13.142;2024-01-30T02:45:34;11.07;;;5.35;;
27517;SDS011;14962;52.482;13.142;2024-01-30T02:48:00;12.05;;;5.53;;
27517;SDS011;14962;52.482;13.142;2024-01-30T02:50:26;11.77;;;5.20;;
27517;SDS011;14962;52.482;13.142;2024-01-30T02:52:52;10.45;;;5.75;;
27517;SDS011;14962;52.482;13.142;2024-01-30T02:55:18;12.13;;;5.18;;
27517;SDS011;14962;52.482;13.142;2024-01-30T02:57:44;12.43;;;5.13;;
27517;SDS011;14962;52.482;13.142;2024-01-30T03:00:10;13.25;;;6.00;;
27517;SDS011;14962;52.482;13.142;2024-01-30T03:02:36;9.35;;;5.05;;
27517;SDS011;14962;52.482;13.142;2024-01-30T03:05:02;11.40;;;5.05;;
27517;SDS011;14962;52.482;13.142;2024-01-30T03:07:29;13.13;;;5.32;;
27517;SDS011;14962;52.482;13.142;2024-01-30T03:09:55;13.98;;;5.25;;
27517;SDS011;14962;52.482;13.142;2024-01-30T03:12:21;13.63;;;5.72;;
27517;SDS011;14962;52.482;13.142;2024-01-30T03:14:47;11.45;;;5.28;;
27517;SDS011;14962;52.482;13.142;2024-01-30T03:17:14;10.77;;;5.05;;
27517;SDS011;14962;52.482;13.142;2024-01-30T03:19:40;12.05;;;5.40;;
27517;SDS011;14962;52.482;13.142;2024-01-30T03:22:06;14.77;;;5.53;;
27517;SDS011;14962;52.482;13.142;2024-01-30T03:24:32;13.82;;;5.30;;
27517;SDS011;14962;52.482;13.142;2024-01-30T03:26:58;12.60;;;5.65;;
27517;SDS011;14962;52.482;13.142;2024-01-30T03:29:24;11.60;;;5.68;;
27517;SDS011;14962;52.482;13.142;2024-01-30T03:31:50;10.15;;;5.47;;
27517;SDS011;14962;52.482;13.142;2024-01-30T03:34:16;9.68;;;5.10;;
27517;SDS011;14962;52.482;13.142;2024-01-30T03:36:42;12.32;;;4.95;;
27517;SDS011;14962;52.482;13.142;2024-01-30T03:39:08;12.75;;;5.45;;
27517;SDS011;14962;52.482;13.142;2024-01-30T03:41:34;11.02;;;5.97;;
27517;SDS011;14962;52.482;13.142;2024-01-30T03:44:00;11.98;;;5.63;;
27517;SDS011;14962;52.482;13.142;2024-01-30T03:46:26;12.25;;;5.30;;
27517;SDS011;14962;52.482;13.142;2024-01-30T03:48:52;13.77;;;6.05;;
27517;SDS011;14962;52.482;13.142;2024-01-30T03:51:18;15.80;;;5.40;;
27517;SDS011;14962;52.482;13.142;2024-01-30T03:53:44;14.48;;;6.18;;
27517;SDS011;14962;52.482;13.142;2024-01-30T03:56:13;10.63;;;5.25;;
27517;SDS011;14962;52.482;13.142;2024-01-30T03:58:39;9.73;;;5.35;;
27517;SDS011;14962;52.482;13.142;2024-01-30T04:01:05;14.70;;;5.68;;
27517;SDS011;14962;52.482;13.142;2024-01-30T04:03:31;9.30;;;4.80;;
27517;SDS011;14962;52.482;13.142;2024-01-30T04:05:57;10.75;;;5.40;;
27517;SDS011;14962;52.482;13.142;2024-01-30T04:08:23;12.10;;;5.22;;
27517;SDS011;14962;52.482;13.142;2024-01-30T04:10:49;10.68;;;5.20;;
27517;SDS011;14962;52.482;13.142;2024-01-30T04:13:15;14.55;;;6.78;;
27517;SDS011;14962;52.482;13.142;2024-01-30T04:15:41;12.57;;;5.82;;
27517;SDS011;14962;52.482;13.142;2024-01-30T04:18:07;12.98;;;5.78;;
27517;SDS011;14962;52.482;13.142;2024-01-30T04:20:33;11.32;;;5.88;;
27517;SDS011;14962;52.482;13.142;2024-01-30T04:22:59;9.90;;;5.28;;
27517;SDS011;14962;52.482;13.142;2024-01-30T04:25:25;9.45;;;5.25;;
27517;SDS011;14962;52.482;13.142;2024-01-30T04:27:51;11.82;;;5.38;;
27517;SDS011;14962;52.482;13.142;2024-01-30T04:30:17;12.32;;;6.10;;
27517;SDS011;14962;52.482;13.142;2024-01-30T04:32:43;14.45;;;5.80;;
27517;SDS011;14962;52.482;13.142;2024-01-30T04:35:09;10.10;;;6.10;;
27517;SDS011;14962;52.482;13.142;2024-01-30T04:37:35;12.65;;;6.10;;
27517;SDS011;14962;52.482;13.142;2024-01-30T04:40:01;11.23;;;6.20;;
27517;SDS011;14962;52.482;13.142;2024-01-30T04:42:28;13.55;;;5.97;;
27517;SDS011;14962;52.482;13.142;2024-01-30T04:44:54;11.40;;;5.85;;
27517;SDS011;14962;52.482;13.142;2024-01-30T04:47:20;14.25;;;6.30;;
27517;SDS011;14962;52.482;13.142;2024-01-30T04:49:46;10.68;;;5.70;;
27517;SDS011;14962;52.482;13.142;2024-01-30T04:52:12;14.13;;;6.30;;
27517;SDS011;14962;52.482;13.142;2024-01-30T04:54:38;11.40;;;5.68;;
27517;SDS011;14962;52.482;13.142;2024-01-30T04:57:04;10.32;;;5.55;;
27517;SDS011;14962;52.482;13.142;2024-01-30T04:59:34;10.32;;;5.35;;
27517;SDS011;14962;52.482;13.142;2024-01-30T05:02:01;11.80;;;4.80;;
27517;SDS011;14962;52.482;13.142;2024-01-30T05:04:27;12.77;;;5.60;;
27517;SDS011;14962;52.482;13.142;2024-01-30T05:06:53;12.88;;;5.75;;
27517;SDS011;14962;52.482;13.142;2024-01-30T05:09:19;11.88;;;5.25;;
27517;SDS011;14962;52.482;13.142;2024-01-30T05:11:45;12.23;;;6.18;;
27517;SDS011;14962;52.482;13.142;2024-01-30T05:14:11;11.77;;;5.80;;
27517;SDS011;14962;52.482;13.142;2024-01-30T05:16:39;12.93;;;5.22;;
27517;SDS011;14962;52.482;13.142;2024-01-30T05:19:06;13.52;;;5.65;;
27517;SDS011;14962;52.482;13.142;2024-01-30T05:21:32;11.40;;;5.70;;
27517;SDS011;14962;52.482;13.142;2024-01-30T05:23:58;10.25;;;5.43;;
27517;SDS011;14962;52.482;13.142;2024-01-30T05:26:24;11.90;;;5.47;;
27517;SDS011;14962;52.482;13.142;2024-01-30T05:28:50;9.75;;;6.18;;
27517;SDS011;14962;52.482;13.142;2024-01-30T05:31:16;14.90;;;6.93;;
27517;SDS011;14962;52.482;13.142;2024-01-30T05:33:42;22.38;;;7.80;;
27517;SDS011;14962;52.482;13.142;2024-01-30T05:36:08;21.23;;;9.38;;
27517;SDS011;14962;52.482;13.142;2024-01-30T05:38:37;19.98;;;8.82;;
27517;SDS011;14962;52.482;13.142;2024-01-30T05:41:03;16.15;;;6.75;;
27517;SDS011;14962;52.482;13.142;2024-01-30T05:43:29;13.52;;;7.22;;
27517;SDS011;14962;52.482;13.142;2024-01-30T05:45:55;13.88;;;6.35;;
27517;SDS011;14962;52.482;13.142;2024-01-30T05:48:21;12.80;;;6.03;;
27517;SDS011;14962;52.482;13.142;2024-01-30T05:50:47;11.43;;;6.13;;
27517;SDS011;14962;52.482;13.142;2024-01-30T05:53:13;9.95;;;5.63;;
27517;SDS011;14962;52.482;13.142;2024-01-30T05:55:39;12.55;;;5.50;;
27517;SDS011;14962;52.482;13.142;2024-01-30T05:58:05;14.43;;;6.45;;
27517;SDS011;14962;52.482;13.142;2024-01-30T06:00:31;11.00;;;5.85;;
27517;SDS011;14962;52.482;13.142;2024-01-30T06:02:57;10.52;;;5.68;;
27517;SDS011;14962;52.482;13.142;2024-01-30T06:05:23;12.23;;;6.75;;
27517;SDS011;14962;52.482;13.142;2024-01-30T06:07:49;12.73;;;6.30;;
27517;SDS011;14962;52.482;13.142;2024-01-30T06:10:15;12.90;;;6.65;;
27517;SDS011;14962;52.482;13.142;2024-01-30T06:12:41;11.95;;;6.85;;
27517;SDS011;14962;52.482;13.142;2024-01-30T06:15:07;13.60;;;7.60;;
27517;SDS011;14962;52.482;13.142;2024-01-30T06:17:33;17.52;;;7.53;;
27517;SDS011;14962;52.482;13.142;2024-01-30T06:19:59;13.85;;;7.18;;
27517;SDS011;14962;52.482;13.142;2024-01-30T06:22:25;13.75;;;8.18;;
27517;SDS011;14962;52.482;13.142;2024-01-30T06:24:50;12.73;;;6.35;;
27517;SDS011;14962;52.482;13.142;2024-01-30T06:27:16;16.63;;;7.40;;
27517;SDS011;14962;52.482;13.142;2024-01-30T06:29:43;15.65;;;8.18;;
27517;SDS011;14962;52.482;13.142;2024-01-30T06:32:09;19.92;;;6.53;;
27517;SDS011;14962;52.482;13.142;2024-01-30T06:34:35;11.00;;;6.30;;
27517;SDS011;14962;52.482;13.142;2024-01-30T06:37:01;13.23;;;6.97;;
27517;SDS011;14962;52.482;13.142;2024-01-30T06:39:27;13.05;;;6.70;;
27517;SDS011;14962;52.482;13.142;2024-01-30T06:41:53;11.80;;;6.22;;
27517;SDS011;14962;52.482;13.142;2024-01-30T06:44:19;12.98;;;6.40;;
27517;SDS011;14962;52.482;13.142;2024-01-30T06:46:45;14.43;;;6.82;;
27517;SDS011;14962;52.482;13.142;2024-01-30T06:49:11;10.43;;;5.78;;
27517;SDS011;14962;52.482;13.142;2024-01-30T06:51:37;15.68;;;6.03;;
27517;SDS011;14962;52.482;13.142;2024-01-30T06:54:03;12.10;;;5.93;;
27517;SDS011;14962;52.482;13.142;2024-01-30T06:56:29;12.60;;;6.65;;
27517;SDS011;14962;52.482;13.142;2024-01-30T06:58:55;10.60;;;6.25;;
27517;SDS011;14962;52.482;13.142;2024-01-30T07:01:27;13.95;;;6.13;;
27517;SDS011;14962;52.482;13.142;2024-01-30T07:03:54;17.00;;;7.93;;
27517;SDS011;14962;52.482;13.142;2024-01-30T07:06:20;14.90;;;6.68;;
27517;SDS011;14962;52.482;13.142;2024-01-30T07:08:47;12.70;;;6.60;;
27517;SDS011;14962;52.482;13.142;2024-01-30T07:11:18;11.88;;;5.82;;
27517;SDS011;14962;52.482;13.142;2024-01-30T07:13:44;14.52;;;7.25;;
27517;SDS011;14962;52.482;13.142;2024-01-30T07:16:10;11.80;;;6.63;;
27517;SDS011;14962;52.482;13.142;2024-01-30T07:18:36;12.65;;;6.38;;
27517;SDS011;14962;52.482;13.142;2024-01-30T07:21:02;12.82;;;6.68;;
27517;SDS011;14962;52.482;13.142;2024-01-30T07:23:28;14.15;;;7.13;;
27517;SDS011;14962;52.482;13.142;2024-01-30T07:25:55;10.82;;;6.15;;
27517;SDS011;14962;52.482;13.142;2024-01-30T07:28:21;12.60;;;5.80;;
27517;SDS011;14962;52.482;13.142;2024-01-30T07:30:47;12.95;;;5.80;;
27517;SDS011;14962;52.482;13.142;2024-01-30T07:33:13;17.92;;;7.60;;
27517;SDS011;14962;52.482;13.142;2024-01-30T07:35:39;12.23;;;6.55;;
27517;SDS011;14962;52.482;13.142;2024-01-30T07:38:05;16.67;;;6.63;;
27517;SDS011;14962;52.482;13.142;2024-01-30T07:40:31;14.13;;;6.75;;
27517;SDS011;14962;52.482;13.142;2024-01-30T07:42:58;10.98;;;5.80;;
27517;SDS011;14962;52.482;13.142;2024-01-30T07:45:24;13.10;;;6.13;;
27517;SDS011;14962;52.482;13.142;2024-01-30T07:47:52;14.00;;;5.90;;
27517;SDS011;14962;52.482;13.142;2024-01-30T07:50:18;12.43;;;6.85;;
27517;SDS011;14962;52.482;13.142;2024-01-30T07:52:44;12.57;;;6.50;;
27517;SDS011;14962;52.482;13.142;2024-01-30T07:55:10;14.38;;;6.65;;
27517;SDS011;14962;52.482;13.142;2024-01-30T07:57:38;12.63;;;6.40;;
27517;SDS011;14962;52.482;13.142;2024-01-30T08:00:05;12.15;;;6.35;;
27517;SDS011;14962;52.482;13.142;2024-01-30T08:02:32;11.80;;;5.50;;
27517;SDS011;14962;52.482;13.142;2024-01-30T08:04:58;11.70;;;5.72;;
27517;SDS011;14962;52.482;13.142;2024-01-30T08:07:24;14.15;;;6.20;;
27517;SDS011;14962;52.482;13.142;2024-01-30T08:09:50;10.25;;;5.55;;
27517;SDS011;14962;52.482;13.142;2024-01-30T08:12:16;14.25;;;6.28;;
27517;SDS011;14962;52.482;13.142;2024-01-30T08:14:42;14.52;;;6.05;;
27517;SDS011;14962;52.482;13.142;2024-01-30T08:17:08;12.80;;;6.57;;
27517;SDS011;14962;52.482;13.142;2024-01-30T08:19:34;12.55;;;6.18;;
27517;SDS011;14962;52.482;13.142;2024-01-30T08:22:01;16.02;;;5.80;;
27517;SDS011;14962;52.482;13.142;2024-01-30T08:24:27;16.85;;;6.10;;
27517;SDS011;14962;52.482;13.142;2024-01-30T08:26:53;16.90;;;7.25;;
27517;SDS011;14962;52.482;13.142;2024-01-30T08:29:19;17.33;;;7.07;;
27517;SDS011;14962;52.482;13.142;2024-01-30T08:31:45;14.27;;;6.38;;
27517;SDS011;14962;52.482;13.142;2024-01-30T08:34:11;15.18;;;7.18;;
27517;SDS011;14962;52.482;13.142;2024-01-30T08:36:37;14.35;;;6.50;;
27517;SDS011;14962;52.482;13.142;2024-01-30T08:39:03;12.43;;;5.82;;
27517;SDS011;14962;52.482;13.142;2024-01-30T08:41:30;13.50;;;6.65;;
27517;SDS011;14962;52.482;13.142;2024-01-30T08:43:56;12.38;;;5.97;;
27517;SDS011;14962;52.482;13.142;2024-01-30T08:46:22;10.93;;;5.75;;
27517;SDS011;14962;52.482;13.142;2024-01-30T08:48:48;14.63;;;6.28;;
27517;SDS011;14962;52.482;13.142;2024-01-30T08:51:14;9.75;;;6.35;;
27517;SDS011;14962;52.482;13.142;2024-01-30T08:53:40;12.98;;;6.80;;
27517;SDS011;14962;52.482;13.142;2024-01-30T08:56:06;16.67;;;7.32;;
27517;SDS011;14962;52.482;13.142;2024-01-30T08:58:32;14.57;;;6.63;;
27517;SDS011;14962;52.482;13.142;2024-01-30T09:00:58;15.63;;;6.57;;
27517;SDS011;14962;52.482;13.142;2024-01-30T09:03:24;13.57;;;6.85;;
27517;SDS011;14962;52.482;13.142;2024-01-30T09:05:51;14.95;;;6.30;;
27517;SDS011;14962;52.482;13.142;2024-01-30T09:08:16;14.05;;;5.75;;
27517;SDS011;14962;52.482;13.142;2024-01-30T09:10:42;12.45;;;6.43;;
27517;SDS011;14962;52.482;13.142;2024-01-30T09:13:09;14.27;;;5.60;;
27517;SDS011;14962;52.482;13.142;2024-01-30T09:15:35;10.35;;;5.93;;
27517;SDS011;14962;52.482;13.142;2024-01-30T09:18:01;14.05;;;6.57;;
27517;SDS011;14962;52.482;13.142;2024-01-30T09:20:27;14.60;;;6.22;;
27517;SDS011;14962;52.482;13.142;2024-01-30T09:22:53;12.77;;;6.38;;
27517;SDS011;14962;52.482;13.142;2024-01-30T09:25:19;9.93;;;5.30;;
27517;SDS011;14962;52.482;13.142;2024-01-30T09:27:45;13.18;;;6.10;;
27517;SDS011;14962;52.482;13.142;2024-01-30T09:30:11;15.10;;;6.47;;
27517;SDS011;14962;52.482;13.142;2024-01-30T09:32:37;13.30;;;6.35;;
27517;SDS011;14962;52.482;13.142;2024-01-30T09:35:05;12.27;;;5.53;;
27517;SDS011;14962;52.482;13.142;2024-01-30T09:37:31;12.63;;;6.35;;
27517;SDS011;14962;52.482;13.142;2024-01-30T09:39:57;13.77;;;5.32;;
27517;SDS011;14962;52.482;13.142;2024-01-30T09:42:33;10.18;;;5.15;;
27517;SDS011;14962;52.482;13.142;2024-01-30T09:45:02;15.65;;;5.78;;
27517;SDS011;14962;52.482;13.142;2024-01-30T09:47:32;14.65;;;5.60;;
27517;SDS011;14962;52.482;13.142;2024-01-30T09:49:58;9.35;;;5.15;;
27517;SDS011;14962;52.482;13.142;2024-01-30T09:52:24;14.35;;;6.07;;
27517;SDS011;14962;52.482;13.142;2024-01-30T09:54:51;9.13;;;5.32;;
27517;SDS011;14962;52.482;13.142;2024-01-30T09:57:17;15.68;;;6.18;;
27517;SDS011;14962;52.482;13.142;2024-01-30T09:59:43;9.57;;;5.20;;
27517;SDS011;14962;52.482;13.142;2024-01-30T10:02:09;12.45;;;5.65;;
27517;SDS011;14962;52.482;13.142;2024-01-30T10:04:35;12.35;;;6.07;;
27517;SDS011;14962;52.482;13.142;2024-01-30T10:07:02;13.45;;;6.45;;
27517;SDS011;14962;52.482;13.142;2024-01-30T10:09:28;13.38;;;6.13;;
27517;SDS011;14962;52.482;13.142;2024-01-30T10:11:57;13.77;;;5.95;;
27517;SDS011;14962;52.482;13.142;2024-01-30T10:14:23;7.72;;;4.15;;
27517;SDS011;14962;52.482;13.142;2024-01-30T10:16:50;11.70;;;4.85;;
27517;SDS011;14962;52.482;13.142;2024-01-30T10:19:16;8.13;;;5.05;;
27517;SDS011;14962;52.482;13.142;2024-01-30T10:21:42;9.60;;;5.18;;
27517;SDS011;14962;52.482;13.142;2024-01-30T10:24:08;10.45;;;4.80;;
27517;SDS011;14962;52.482;13.142;2024-01-30T10:26:38;10.80;;;5.18;;
27517;SDS011;14962;52.482;13.142;2024-01-30T10:29:04;11.82;;;5.97;;
27517;SDS011;14962;52.482;13.142;2024-01-30T10:31:30;11.27;;;4.55;;
27517;SDS011;14962;52.482;13.142;2024-01-30T10:33:56;14.63;;;5.22;;
27517;SDS011;14962;52.482;13.142;2024-01-30T10:36:24;12.10;;;5.68;;
27517;SDS011;14962;52.482;13.142;2024-01-30T10:38:52;12.13;;;5.28;;
27517;SDS011;14962;52.482;13.142;2024-01-30T10:41:21;10.13;;;5.05;;
27517;SDS011;14962;52.482;13.142;2024-01-30T10:43:50;11.27;;;5.32;;
27517;SDS011;14962;52.482;13.142;2024-01-30T10:46:21;13.98;;;5.30;;
27517;SDS011;14962;52.482;13.142;2024-01-30T10:48:55;12.63;;;5.57;;
27517;SDS011;14962;52.482;13.142;2024-01-30T10:51:23;8.87;;;4.80;;
27517;SDS011;14962;52.482;13.142;2024-01-30T10:53:49;8.45;;;4.50;;
27517;SDS011;14962;52.482;13.142;2024-01-30T10:56:16;12.98;;;4.95;;
27517;SDS011;14962;52.482;13.142;2024-01-30T10:58:43;9.85;;;5.00;;
27517;SDS011;14962;52.482;13.142;2024-01-30T11:01:09;12.18;;;5.63;;
27517;SDS011;14962;52.482;13.142;2024-01-30T11:03:35;11.63;;;4.82;;
27517;SDS011;14962;52.482;13.142;2024-01-30T11:06:02;10.30;;;5.30;;
27517;SDS011;14962;52.482;13.142;2024-01-30T11:08:28;14.30;;;5.63;;
27517;SDS011;14962;52.482;13.142;2024-01-30T11:10:55;12.93;;;5.25;;
27517;SDS011;14962;52.482;13.142;2024-01-30T11:13:22;10.10;;;5.20;;
27517;SDS011;14962;52.482;13.142;2024-01-30T11:15:48;9.98;;;4.80;;
27517;SDS011;14962;52.482;13.142;2024-01-30T11:18:24;10.00;;;5.05;;
27517;SDS011;14962;52.482;13.142;2024-01-30T11:20:50;10.32;;;5.35;;
27517;SDS011;14962;52.482;13.142;2024-01-30T11:23:16;14.13;;;5.30;;
27517;SDS011;14962;52.482;13.142;2024-01-30T11:25:43;11.55;;;5.40;;
27517;SDS011;14962;52.482;13.142;2024-01-30T11:28:15;14.20;;;5.82;;
27517;SDS011;14962;52.482;13.142;2024-01-30T11:30:41;10.77;;;5.00;;
27517;SDS011;14962;52.482;13.142;2024-01-30T11:33:08;9.85;;;4.78;;
27517;SDS011;14962;52.482;13.142;2024-01-30T11:35:36;9.10;;;5.03;;
27517;SDS011;14962;52.482;13.142;2024-01-30T11:38:04;14.10;;;5.70;;
27517;SDS011;14962;52.482;13.142;2024-01-30T11:40:31;13.95;;;5.93;;
27517;SDS011;14962;52.482;13.142;2024-01-30T11:42:58;11.82;;;5.95;;
27517;SDS011;14962;52.482;13.142;2024-01-30T11:45:24;8.23;;;5.15;;
27517;SDS011;14962;52.482;13.142;2024-01-30T11:47:50;10.13;;;5.50;;
27517;SDS011;14962;52.482;13.142;2024-01-30T11:50:16;12.63;;;5.90;;
27517;SDS011;14962;52.482;13.142;2024-01-30T11:52:42;10.65;;;5.18;;
27517;SDS011;14962;52.482;13.142;2024-01-30T11:55:08;9.20;;;5.60;;
27517;SDS011;14962;52.482;13.142;2024-01-30T11:57:35;12.07;;;5.75;;
27517;SDS011;14962;52.482;13.142;2024-01-30T12:00:02;13.48;;;5.47;;
27517;SDS011;14962;52.482;13.142;2024-01-30T12:05:04;10.60;;;5.22;;
27517;SDS011;14962;52.482;13.142;2024-01-30T12:07:30;9.27;;;4.90;;
27517;SDS011;14962;52.482;13.142;2024-01-30T12:09:56;8.80;;;4.85;;
27517;SDS011;14962;52.482;13.142;2024-01-30T12:12:26;10.93;;;5.25;;
27517;SDS011;14962;52.482;13.142;2024-01-30T12:14:52;10.30;;;5.80;;
27517;SDS011;14962;52.482;13.142;2024-01-30T12:19:50;10.65;;;5.43;;
27517;SDS011;14962;52.482;13.142;2024-01-30T12:22:19;12.38;;;5.13;;
27517;SDS011;14962;52.482;13.142;2024-01-30T12:24:45;10.27;;;6.00;;
27517;SDS011;14962;52.482;13.142;2024-01-30T12:27:11;10.90;;;6.40;;
27517;SDS011;14962;52.482;13.142;2024-01-30T12:29:41;9.77;;;5.20;;
27517;SDS011;14962;52.482;13.142;2024-01-30T12:32:07;10.98;;;5.63;;
27517;SDS011;14962;52.482;13.142;2024-01-30T12:34:33;10.77;;;5.38;;
27517;SDS011;14962;52.482;13.142;2024-01-30T12:37:00;12.52;;;5.72;;
27517;SDS011;14962;52.482;13.142;2024-01-30T12:39:26;11.48;;;5.20;;
27517;SDS011;14962;52.482;13.142;2024-01-30T12:41:52;12.98;;;5.80;;
27517;SDS011;14962;52.482;13.142;2024-01-30T12:44:18;9.13;;;5.53;;
27517;SDS011;14962;52.482;13.142;2024-01-30T12:46:44;8.35;;;4.80;;
27517;SDS011;14962;52.482;13.142;2024-01-30T12:49:10;9.50;;;5.22;;
27517;SDS011;14962;52.482;13.142;2024-01-30T12:51:36;12.20;;;4.75;;
27517;SDS011;14962;52.482;13.142;2024-01-30T12:54:05;12.25;;;4.88;;
27517;SDS011;14962;52.482;13.142;2024-01-30T12:56:32;11.52;;;6.20;;
27517;SDS011;14962;52.482;13.142;2024-01-30T12:58:58;10.63;;;5.18;;
27517;SDS011;14962;52.482;13.142;2024-01-30T13:01:24;14.75;;;6.18;;
27517;SDS011;14962;52.482;13.142;2024-01-30T13:03:50;8.07;;;4.53;;
27517;SDS011;14962;52.482;13.142;2024-01-30T13:06:16;8.98;;;4.45;;
27517;SDS011;14962;52.482;13.142;2024-01-30T13:08:42;9.25;;;4.60;;
27517;SDS011;14962;52.482;13.142;2024-01-30T13:11:08;9.95;;;4.95;;
27517;SDS011;14962;52.482;13.142;2024-01-30T13:13:34;8.85;;;5.10;;
27517;SDS011;14962;52.482;13.142;2024-01-30T13:16:00;12.75;;;4.93;;
27517;SDS011;14962;52.482;13.142;2024-01-30T13:18:26;9.77;;;4.82;;
27517;SDS011;14962;52.482;13.142;2024-01-30T13:20:52;8.50;;;4.55;;
27517;SDS011;14962;52.482;13.142;2024-01-30T13:23:18;11.27;;;4.90;;
27517;SDS011;14962;52.482;13.142;2024-01-30T13:25:44;11.07;;;4.90;;
27517;SDS011;14962;52.482;13.142;2024-01-30T13:28:10;9.18;;;4.75;;
27517;SDS011;14962;52.482;13.142;2024-01-30T13:30:36;9.55;;;5.57;;
27517;SDS011;14962;52.482;13.142;2024-01-30T13:33:02;10.95;;;4.68;;
27517;SDS011;14962;52.482;13.142;2024-01-30T13:35:28;8.98;;;4.85;;
27517;SDS011;14962;52.482;13.142;2024-01-30T13:37:54;9.57;;;4.40;;
27517;SDS011;14962;52.482;13.142;2024-01-30T13:40:20;12.07;;;5.13;;
27517;SDS011;14962;52.482;13.142;2024-01-30T13:42:47;13.02;;;4.72;;
27517;SDS011;14962;52.482;13.142;2024-01-30T13:45:13;8.63;;;4.15;;
27517;SDS011;14962;52.482;13.142;2024-01-30T13:47:40;12.63;;;4.75;;
27517;SDS011;14962;52.482;13.142;2024-01-30T13:50:06;9.10;;;4.80;;
27517;SDS011;14962;52.482;13.142;2024-01-30T13:52:33;8.52;;;4.30;;
27517;SDS011;14962;52.482;13.142;2024-01-30T13:54:59;10.25;;;4.80;;
27517;SDS011;14962;52.482;13.142;2024-01-30T13:57:24;12.35;;;4.72;;
27517;SDS011;14962;52.482;13.142;2024-01-30T13:59:50;9.20;;;4.82;;
27517;SDS011;14962;52.482;13.142;2024-01-30T14:02:16;10.35;;;4.60;;
27517;SDS011;14962;52.482;13.142;2024-01-30T14:04:42;8.15;;;4.68;;
27517;SDS011;14962;52.482;13.142;2024-01-30T14:07:08;12.70;;;4.65;;
27517;SDS011;14962;52.482;13.142;2024-01-30T14:09:34;12.52;;;4.80;;
27517;SDS011;14962;52.482;13.142;2024-01-30T14:12:01;13.05;;;4.85;;
27517;SDS011;14962;52.482;13.142;2024-01-30T14:14:26;9.65;;;5.10;;
27517;SDS011;14962;52.482;13.142;2024-01-30T14:16:52;8.55;;;4.55;;
27517;SDS011;14962;52.482;13.142;2024-01-30T14:19:18;9.23;;;4.50;;
27517;SDS011;14962;52.482;13.142;2024-01-30T14:21:44;10.55;;;4.95;;
27517;SDS011;14962;52.482;13.142;2024-01-30T14:24:10;8.90;;;4.80;;